Time;durP1;ratioP1;P1;durP2;ratioP2;P2;SDS_P1;SDS_P2;PMS_P1;PMS_P2;Temp;Humidity;BMP_temperature;BMP_pressure;BME280_temperature;BME280_humidity;BME280_pressure;Samples;Min_cycle;Max_cycle;Signal;HPM_P1;HPM_P2
2022/09/25 00:01:58;;;;;;;3.80;1.63;;;;;;;;;;5112736;28;20048;-77
2022/09/25 00:04:24;;;;;;;3.92;1.58;;;;;;;;;;5113117;28;20155;-77
2022/09/25 00:06:50;;;;;;;2.45;1.63;;;;;;;;;;5106445;27;20055;-77
2022/09/25 00:09:20;;;;;;;2.78;1.58;;;;;;;;;;5108177;27;20044;-77
2022/09/25 00:11:46;;;;;;;4.35;1.73;;;;;;;;;;5110910;27;20187;-76
2022/09/25 00:14:12;;;;;;;3.65;1.50;;;;;;;;;;5111911;27;20043;-77
2022/09/25 00:16:38;;;;;;;7.30;1.70;;;;;;;;;;5112206;28;20507;-77
2022/09/25 00:21:51;;;;;;;4.65;1.75;;;;;;;;;;5111614;28;20511;-77
2022/09/25 00:24:18;;;;;;;2.53;1.40;;;;;;;;;;5116106;27;20414;-77
2022/09/25 00:26:44;;;;;;;4.93;2.20;;;;;;;;;;5104282;27;20055;-77
2022/09/25 00:29:15;;;;;;;4.68;2.08;;;;;;;;;;5111407;28;20058;-77
2022/09/25 00:31:42;;;;;;;4.43;1.90;;;;;;;;;;5105946;28;20407;-77
2022/09/25 00:34:08;;;;;;;4.03;1.63;;;;;;;;;;5110308;27;20134;-77
2022/09/25 00:36:34;;;;;;;8.50;2.00;;;;;;;;;;5109765;27;20047;-77
2022/09/25 00:39:00;;;;;;;4.28;1.58;;;;;;;;;;5105252;28;20039;-77
2022/09/25 00:41:27;;;;;;;4.85;1.80;;;;;;;;;;5107325;27;20427;-77
2022/09/25 00:43:55;;;;;;;4.03;1.60;;;;;;;;;;5113593;27;20047;-77
2022/09/25 00:46:21;;;;;;;4.03;1.70;;;;;;;;;;5113595;27;20075;-76
2022/09/25 00:48:49;;;;;;;9.30;2.00;;;;;;;;;;5107654;28;20128;-77
2022/09/25 00:51:17;;;;;;;8.80;2.25;;;;;;;;;;5115805;27;20035;-78
2022/09/25 00:53:43;;;;;;;4.97;1.95;;;;;;;;;;5109594;27;20047;-77
2022/09/25 00:56:11;;;;;;;5.60;2.00;;;;;;;;;;5100013;28;20122;-77
2022/09/25 00:58:39;;;;;;;11.63;2.35;;;;;;;;;;5112798;27;20126;-77
2022/09/25 01:01:06;;;;;;;8.32;2.55;;;;;;;;;;5111653;28;20172;-76
2022/09/25 01:03:32;;;;;;;5.55;2.20;;;;;;;;;;5108350;28;20383;-76
2022/09/25 01:06:00;;;;;;;6.10;1.90;;;;;;;;;;5110619;27;20051;-77
2022/09/25 01:08:26;;;;;;;6.07;2.30;;;;;;;;;;5111881;27;20040;-76
2022/09/25 01:10:52;;;;;;;6.07;1.90;;;;;;;;;;5116053;27;20050;-76
2022/09/25 01:13:19;;;;;;;6.13;1.80;;;;;;;;;;5100783;27;20047;-76
2022/09/25 01:16:09;;;;;;;5.85;1.95;;;;;;;;;;5119112;27;20114;-77
2022/09/25 01:18:54;;;;;;;3.75;1.70;;;;;;;;;;5112912;27;20556;-76
2022/09/25 01:21:20;;;;;;;3.10;1.40;;;;;;;;;;5107970;27;20039;-76
2022/09/25 01:24:04;;;;;;;2.75;1.38;;;;;;;;;;5103969;27;20055;-76
2022/09/25 01:26:41;;;;;;;2.35;1.42;;;;;;;;;;5104819;28;20422;-77
2022/09/25 01:29:11;;;;;;;1.67;1.30;;;;;;;;;;5110191;27;20039;-77
2022/09/25 01:31:50;;;;;;;2.17;1.33;;;;;;;;;;5113948;27;20047;-77
2022/09/25 01:34:38;;;;;;;1.77;1.40;;;;;;;;;;5108146;27;20139;-77
2022/09/25 01:37:08;;;;;;;3.22;1.40;;;;;;;;;;5108714;28;20376;-76
2022/09/25 01:39:55;;;;;;;2.83;1.50;;;;;;;;;;5109806;27;20048;-76
2022/09/25 01:42:22;;;;;;;2.10;1.45;;;;;;;;;;5113321;27;20056;-77
2022/09/25 01:45:15;;;;;;;4.35;2.60;;;;;;;;;;5110854;28;20047;-77
2022/09/25 01:47:43;;;;;;;3.13;1.60;;;;;;;;;;5094131;28;20510;-77
2022/09/25 01:50:14;;;;;;;3.40;1.50;;;;;;;;;;5113977;27;20141;-76
2022/09/25 01:52:42;;;;;;;3.63;1.88;;;;;;;;;;5109337;28;20040;-76
2022/09/25 01:55:17;;;;;;;7.45;1.90;;;;;;;;;;5112808;27;20043;-76
2022/09/25 01:57:50;;;;;;;3.85;1.67;;;;;;;;;;5109010;28;20039;-76
2022/09/25 02:00:20;;;;;;;5.60;1.70;;;;;;;;;;5106621;27;20039;-76
2022/09/25 02:02:54;;;;;;;2.58;1.48;;;;;;;;;;5110500;27;20039;-77
2022/09/25 02:05:31;;;;;;;4.40;1.85;;;;;;;;;;5111889;27;20463;-77
2022/09/25 02:08:00;;;;;;;4.72;2.08;;;;;;;;;;5107691;27;20047;-77
2022/09/25 02:10:28;;;;;;;3.17;1.92;;;;;;;;;;5110104;28;20046;-77
2022/09/25 02:12:58;;;;;;;4.68;1.85;;;;;;;;;;5105577;27;20128;-76
2022/09/25 02:15:36;;;;;;;2.45;1.75;;;;;;;;;;5108666;27;20054;-76
2022/09/25 02:21:08;;;;;;;4.78;1.65;;;;;;;;;;5110000;27;20052;-77
2022/09/25 02:24:03;;;;;;;5.07;2.03;;;;;;;;;;5089601;27;20086;-77
2022/09/25 02:26:30;;;;;;;3.88;1.95;;;;;;;;;;5086552;28;20052;-76
2022/09/25 02:28:57;;;;;;;4.45;1.60;;;;;;;;;;5108076;28;20043;-76
2022/09/25 02:31:29;;;;;;;2.53;1.70;;;;;;;;;;5109427;27;20048;-77
2022/09/25 02:33:56;;;;;;;5.55;1.90;;;;;;;;;;5106907;28;20043;-77
2022/09/25 02:36:23;;;;;;;4.85;1.80;;;;;;;;;;5104559;27;20035;-77
2022/09/25 02:38:50;;;;;;;5.18;1.88;;;;;;;;;;5108231;28;20058;-77
2022/09/25 02:41:31;;;;;;;2.58;1.60;;;;;;;;;;5107024;28;20039;-77
2022/09/25 02:44:00;;;;;;;3.92;1.88;;;;;;;;;;5101807;28;20122;-77
2022/09/25 02:46:36;;;;;;;1.73;1.50;;;;;;;;;;5105019;28;20036;-77
2022/09/25 02:49:15;;;;;;;3.30;1.80;;;;;;;;;;5097225;28;20042;-77
2022/09/25 02:51:51;;;;;;;2.25;1.55;;;;;;;;;;5109766;28;20368;-77
2022/09/25 02:54:24;;;;;;;5.32;2.22;;;;;;;;;;5107614;27;20051;-77
2022/09/25 02:56:56;;;;;;;2.92;1.65;;;;;;;;;;5102958;28;20048;-77
2022/09/25 02:59:25;;;;;;;4.53;1.70;;;;;;;;;;5107695;28;20430;-77
2022/09/25 03:01:51;;;;;;;5.22;1.70;;;;;;;;;;5102198;27;20841;-77
2022/09/25 03:04:18;;;;;;;3.15;1.67;;;;;;;;;;5108875;28;20054;-77
2022/09/25 03:06:45;;;;;;;1.73;1.40;;;;;;;;;;5107107;28;20551;-77
2022/09/25 03:09:12;;;;;;;5.18;1.50;;;;;;;;;;5111841;27;20068;-77
2022/09/25 03:11:40;;;;;;;3.72;1.90;;;;;;;;;;5102379;28;20040;-77
2022/09/25 03:14:06;;;;;;;3.25;1.60;;;;;;;;;;5107525;28;20119;-77
2022/09/25 03:16:45;;;;;;;5.90;1.83;;;;;;;;;;5104403;28;20093;-77
2022/09/25 03:19:12;;;;;;;3.85;1.90;;;;;;;;;;5111374;28;20101;-77
2022/09/25 03:21:38;;;;;;;6.75;1.88;;;;;;;;;;5109296;28;20054;-77
2022/09/25 03:24:05;;;;;;;2.58;1.60;;;;;;;;;;5120188;28;20233;-77
2022/09/25 03:26:31;;;;;;;8.60;2.03;;;;;;;;;;5111371;28;20087;-77
2022/09/25 03:29:01;;;;;;;4.70;1.80;;;;;;;;;;5110035;28;20054;-77
2022/09/25 03:31:27;;;;;;;8.45;2.10;;;;;;;;;;5111643;28;20069;-77
2022/09/25 03:33:53;;;;;;;6.80;1.90;;;;;;;;;;5101210;28;20073;-77
2022/09/25 03:36:20;;;;;;;4.07;1.70;;;;;;;;;;5109599;28;20047;-77
2022/09/25 03:38:49;;;;;;;5.65;1.77;;;;;;;;;;5111461;28;20040;-77
2022/09/25 03:41:19;;;;;;;3.88;1.60;;;;;;;;;;5104965;28;20479;-77
2022/09/25 03:43:48;;;;;;;4.82;1.73;;;;;;;;;;5104412;28;20096;-77
2022/09/25 03:46:14;;;;;;;5.32;2.35;;;;;;;;;;5111252;28;20044;-76
2022/09/25 03:48:41;;;;;;;4.22;1.80;;;;;;;;;;5117875;28;20146;-77
2022/09/25 03:51:08;;;;;;;5.45;1.75;;;;;;;;;;5105981;28;20047;-77
2022/09/25 03:53:34;;;;;;;4.55;1.80;;;;;;;;;;5108698;28;20044;-78
2022/09/25 03:56:01;;;;;;;3.60;1.70;;;;;;;;;;5105537;28;20044;-77
2022/09/25 03:58:27;;;;;;;4.35;1.70;;;;;;;;;;5110562;28;20036;-77
2022/09/25 04:00:56;;;;;;;3.08;1.80;;;;;;;;;;5103319;28;20130;-77
2022/09/25 04:03:22;;;;;;;3.47;1.90;;;;;;;;;;5109960;28;20075;-77
2022/09/25 04:05:49;;;;;;;4.07;2.10;;;;;;;;;;5103969;28;20058;-77
2022/09/25 04:08:15;;;;;;;3.63;1.58;;;;;;;;;;5108322;28;20053;-77
2022/09/25 04:10:41;;;;;;;4.85;1.90;;;;;;;;;;5107325;28;20362;-77
2022/09/25 04:13:11;;;;;;;2.15;1.58;;;;;;;;;;5106719;28;20043;-77
2022/09/25 04:15:38;;;;;;;3.92;1.70;;;;;;;;;;5100888;28;20047;-77
2022/09/25 04:18:04;;;;;;;4.30;1.92;;;;;;;;;;5113584;27;20487;-77
2022/09/25 04:20:30;;;;;;;5.25;1.95;;;;;;;;;;5104730;28;21838;-77
2022/09/25 04:22:56;;;;;;;3.25;1.52;;;;;;;;;;5106475;28;20164;-77
2022/09/25 04:25:24;;;;;;;1.60;1.50;;;;;;;;;;5106433;28;20054;-77
2022/09/25 04:27:51;;;;;;;4.30;1.85;;;;;;;;;;5107793;28;20070;-77
2022/09/25 04:30:17;;;;;;;5.60;2.00;;;;;;;;;;5117320;27;20100;-77
2022/09/25 04:35:28;;;;;;;2.45;1.73;;;;;;;;;;5113833;27;20050;-77
2022/09/25 04:37:54;;;;;;;2.80;1.88;;;;;;;;;;5121512;27;20043;-77
2022/09/25 04:40:20;;;;;;;3.33;1.80;;;;;;;;;;5110332;27;20411;-77
2022/09/25 04:42:46;;;;;;;3.75;1.80;;;;;;;;;;5115447;28;20043;-77
2022/09/25 04:45:12;;;;;;;4.07;2.15;;;;;;;;;;5107086;27;20048;-77
2022/09/25 04:47:38;;;;;;;3.15;1.60;;;;;;;;;;5109084;28;20484;-77
2022/09/25 04:50:04;;;;;;;4.20;1.67;;;;;;;;;;5117246;27;20043;-77
2022/09/25 04:52:30;;;;;;;2.97;1.70;;;;;;;;;;5119893;27;20107;-77
2022/09/25 04:54:56;;;;;;;2.47;1.85;;;;;;;;;;5127520;27;20051;-77
2022/09/25 04:57:25;;;;;;;2.00;1.80;;;;;;;;;;5109498;28;20391;-77
2022/09/25 04:59:51;;;;;;;6.68;2.28;;;;;;;;;;5099257;27;20054;-77
2022/09/25 05:02:17;;;;;;;2.95;1.50;;;;;;;;;;5107261;27;20051;-77
2022/09/25 05:04:43;;;;;;;2.75;1.83;;;;;;;;;;5111496;27;20555;-77
2022/09/25 05:07:09;;;;;;;2.53;1.70;;;;;;;;;;5110819;28;20392;-77
2022/09/25 05:09:36;;;;;;;3.05;2.10;;;;;;;;;;5110446;27;20114;-77
2022/09/25 05:12:02;;;;;;;3.05;1.80;;;;;;;;;;5105889;27;20090;-77
2022/09/25 05:14:29;;;;;;;2.85;1.70;;;;;;;;;;5107979;27;20079;-77
2022/09/25 05:16:56;;;;;;;3.20;1.95;;;;;;;;;;5110962;27;20412;-77
2022/09/25 05:19:22;;;;;;;2.97;2.08;;;;;;;;;;5108718;27;20040;-77
2022/09/25 05:21:48;;;;;;;6.90;2.50;;;;;;;;;;5110575;27;20051;-77
2022/09/25 05:24:14;;;;;;;6.93;2.10;;;;;;;;;;5111457;27;20096;-77
2022/09/25 05:26:41;;;;;;;5.20;1.90;;;;;;;;;;5115508;27;20120;-76
2022/09/25 05:29:07;;;;;;;3.83;2.13;;;;;;;;;;5109507;27;20067;-77
2022/09/25 05:31:33;;;;;;;4.28;2.05;;;;;;;;;;5120875;27;20047;-77
2022/09/25 05:33:59;;;;;;;6.78;1.98;;;;;;;;;;5092289;28;20500;-77
2022/09/25 05:36:25;;;;;;;3.08;1.95;;;;;;;;;;5109929;27;20066;-77
2022/09/25 05:38:51;;;;;;;5.47;2.20;;;;;;;;;;5111502;27;20151;-77
2022/09/25 05:41:17;;;;;;;4.10;1.90;;;;;;;;;;5113911;27;20488;-78
2022/09/25 05:43:46;;;;;;;5.75;1.88;;;;;;;;;;5109120;27;20043;-77
2022/09/25 05:46:12;;;;;;;2.67;1.80;;;;;;;;;;5112326;28;20035;-77
2022/09/25 05:48:44;;;;;;;5.05;2.20;;;;;;;;;;5098032;27;20055;-77
2022/09/25 05:51:10;;;;;;;5.05;2.08;;;;;;;;;;5110467;27;20039;-77
2022/09/25 05:53:37;;;;;;;3.75;2.03;;;;;;;;;;5104537;27;20126;-77
2022/09/25 05:56:04;;;;;;;8.43;2.03;;;;;;;;;;5103939;27;20091;-77
2022/09/25 05:58:32;;;;;;;7.10;2.08;;;;;;;;;;5118407;28;20043;-77
2022/09/25 06:01:02;;;;;;;5.90;1.95;;;;;;;;;;5114531;27;20052;-77
2022/09/25 06:03:28;;;;;;;7.57;2.10;;;;;;;;;;5110632;27;20140;-76
2022/09/25 06:06:03;;;;;;;4.68;2.17;;;;;;;;;;5106358;27;20185;-77
2022/09/25 06:08:30;;;;;;;5.18;2.00;;;;;;;;;;5108392;28;20123;-77
2022/09/25 06:10:56;;;;;;;3.97;1.90;;;;;;;;;;5107780;27;20090;-77
2022/09/25 06:13:23;;;;;;;5.18;1.90;;;;;;;;;;5114827;27;20043;-77
2022/09/25 06:15:51;;;;;;;4.30;1.80;;;;;;;;;;5119229;27;20047;-77
2022/09/25 06:18:17;;;;;;;4.13;1.90;;;;;;;;;;5108656;27;20111;-77
2022/09/25 06:20:43;;;;;;;6.53;2.10;;;;;;;;;;5098187;27;20490;-77
2022/09/25 06:23:09;;;;;;;4.97;1.75;;;;;;;;;;5111148;27;20525;-77
2022/09/25 06:25:35;;;;;;;5.38;1.92;;;;;;;;;;5110265;27;20062;-77
2022/09/25 06:28:01;;;;;;;5.63;2.03;;;;;;;;;;5114022;27;20496;-77
2022/09/25 06:30:33;;;;;;;6.05;2.28;;;;;;;;;;5105963;27;20044;-77
2022/09/25 06:33:19;;;;;;;4.90;2.05;;;;;;;;;;5108879;27;20047;-77
2022/09/25 06:35:49;;;;;;;3.45;1.75;;;;;;;;;;5113667;27;20486;-77
2022/09/25 06:38:15;;;;;;;4.65;1.83;;;;;;;;;;5111467;28;20066;-76
2022/09/25 06:40:42;;;;;;;6.38;2.00;;;;;;;;;;5109090;28;20040;-77
2022/09/25 06:43:15;;;;;;;5.15;2.10;;;;;;;;;;5107876;28;20051;-77
2022/09/25 06:45:42;;;;;;;4.10;2.10;;;;;;;;;;5110894;28;20035;-76
2022/09/25 06:48:09;;;;;;;6.07;1.83;;;;;;;;;;5109810;27;20043;-76
2022/09/25 06:50:55;;;;;;;3.45;2.17;;;;;;;;;;5100620;27;20551;-77
2022/09/25 06:53:22;;;;;;;2.70;1.70;;;;;;;;;;5108745;28;20108;-77
2022/09/25 06:55:48;;;;;;;5.75;1.80;;;;;;;;;;5121618;27;20047;-77
2022/09/25 06:58:15;;;;;;;4.75;1.80;;;;;;;;;;5105401;28;20857;-77
2022/09/25 07:00:45;;;;;;;2.70;1.50;;;;;;;;;;5110794;27;20036;-76
2022/09/25 07:05:56;;;;;;;2.03;1.52;;;;;;;;;;5104812;28;20083;-77
2022/09/25 07:08:22;;;;;;;4.95;1.58;;;;;;;;;;5111468;27;20036;-78
2022/09/25 07:10:49;;;;;;;2.15;1.63;;;;;;;;;;5108128;28;20047;-76
2022/09/25 07:13:16;;;;;;;2.88;1.60;;;;;;;;;;5110500;27;20070;-76
2022/09/25 07:15:42;;;;;;;5.38;1.67;;;;;;;;;;5105107;28;20532;-76
2022/09/25 07:18:08;;;;;;;6.72;2.25;;;;;;;;;;5113290;27;20039;-76
2022/09/25 07:20:34;;;;;;;3.40;1.50;;;;;;;;;;5117046;27;20040;-77
2022/09/25 07:23:03;;;;;;;3.88;1.42;;;;;;;;;;5104107;28;20490;-77
2022/09/25 07:25:32;;;;;;;2.70;1.60;;;;;;;;;;5107534;28;20051;-77
2022/09/25 07:27:59;;;;;;;2.97;1.55;;;;;;;;;;5107259;28;20481;-79
2022/09/25 07:30:28;;;;;;;3.55;1.60;;;;;;;;;;5113936;28;20058;-78
2022/09/25 07:32:54;;;;;;;3.13;1.50;;;;;;;;;;5109921;28;20047;-79
2022/09/25 07:35:21;;;;;;;2.33;1.65;;;;;;;;;;5107331;28;20040;-78
2022/09/25 07:37:47;;;;;;;3.15;1.83;;;;;;;;;;5107964;28;20036;-78
2022/09/25 07:40:13;;;;;;;2.42;1.60;;;;;;;;;;5102629;28;20055;-78
2022/09/25 07:42:42;;;;;;;3.92;1.80;;;;;;;;;;5113319;28;20047;-78
2022/09/25 07:45:08;;;;;;;4.15;1.67;;;;;;;;;;5099915;28;20075;-78
2022/09/25 07:47:34;;;;;;;3.42;1.88;;;;;;;;;;5110697;28;20047;-79
2022/09/25 07:50:00;;;;;;;6.05;2.00;;;;;;;;;;5108516;28;20036;-78
2022/09/25 07:52:26;;;;;;;3.17;1.60;;;;;;;;;;5106656;28;20426;-79
2022/09/25 07:54:52;;;;;;;2.67;1.65;;;;;;;;;;5108558;28;20058;-79
2022/09/25 07:57:19;;;;;;;2.92;2.03;;;;;;;;;;5095984;28;20047;-79
2022/09/25 07:59:45;;;;;;;4.97;1.83;;;;;;;;;;5104037;28;20043;-77
2022/09/25 08:02:11;;;;;;;4.45;2.00;;;;;;;;;;5106746;28;20039;-79
2022/09/25 08:04:37;;;;;;;1.60;1.50;;;;;;;;;;5106678;28;20047;-77
2022/09/25 08:07:03;;;;;;;4.03;1.77;;;;;;;;;;5111764;28;20054;-77
2022/09/25 08:09:30;;;;;;;3.45;1.80;;;;;;;;;;5112631;27;20498;-77
2022/09/25 08:11:56;;;;;;;2.40;1.40;;;;;;;;;;5113179;27;20126;-77
2022/09/25 08:14:22;;;;;;;3.08;1.60;;;;;;;;;;5110948;28;20514;-77
2022/09/25 08:16:48;;;;;;;5.53;1.80;;;;;;;;;;5115914;27;20126;-76
2022/09/25 08:19:17;;;;;;;1.85;1.40;;;;;;;;;;5102150;27;20123;-76
2022/09/25 08:21:43;;;;;;;3.22;1.30;;;;;;;;;;5112446;27;20060;-76
2022/09/25 08:24:09;;;;;;;2.10;1.40;;;;;;;;;;5111040;28;20049;-79
2022/09/25 08:26:36;;;;;;;1.60;1.30;;;;;;;;;;5106277;27;20613;-80
2022/09/25 08:29:03;;;;;;;2.47;1.30;;;;;;;;;;5098942;27;20391;-80
2022/09/25 08:31:29;;;;;;;1.38;1.27;;;;;;;;;;5111395;27;20080;-82
2022/09/25 08:33:55;;;;;;;1.65;1.48;;;;;;;;;;5102866;28;20982;-82
2022/09/25 08:36:22;;;;;;;2.13;1.42;;;;;;;;;;5110691;27;20105;-76
2022/09/25 08:38:48;;;;;;;1.55;1.45;;;;;;;;;;5110582;27;20052;-81
2022/09/25 08:41:21;;;;;;;3.20;1.60;;;;;;;;;;5104839;28;20051;-78
2022/09/25 08:43:55;;;;;;;3.33;1.30;;;;;;;;;;5111787;27;20047;-76
2022/09/25 08:49:10;;;;;;;2.33;1.30;;;;;;;;;;5109800;27;20052;-77
2022/09/25 08:51:38;;;;;;;2.22;1.50;;;;;;;;;;5109203;28;20387;-76
2022/09/25 08:54:04;;;;;;;6.00;1.60;;;;;;;;;;5102670;27;20051;-77
2022/09/25 08:56:31;;;;;;;4.53;1.48;;;;;;;;;;5104436;28;20040;-76
2022/09/25 08:59:04;;;;;;;4.72;1.63;;;;;;;;;;5116059;27;20044;-79
2022/09/25 09:01:39;;;;;;;3.10;1.65;;;;;;;;;;5098705;27;20047;-79
2022/09/25 09:04:32;;;;;;;1.48;1.38;;;;;;;;;;5114859;27;20058;-77
2022/09/25 09:07:06;;;;;;;3.72;1.60;;;;;;;;;;5072753;27;20147;-81
2022/09/25 09:09:44;;;;;;;2.53;1.67;;;;;;;;;;5111576;28;20071;-80
2022/09/25 09:12:12;;;;;;;3.35;1.90;;;;;;;;;;5110000;27;20479;-79
2022/09/25 09:14:43;;;;;;;5.45;1.50;;;;;;;;;;5096873;27;20044;-80
2022/09/25 09:17:28;;;;;;;6.28;1.60;;;;;;;;;;5111419;27;20125;-80
2022/09/25 09:19:56;;;;;;;2.20;1.30;;;;;;;;;;5112473;28;20043;-80
2022/09/25 09:22:38;;;;;;;5.28;1.50;;;;;;;;;;5104867;28;20125;-79
2022/09/25 09:25:16;;;;;;;2.75;1.90;;;;;;;;;;5112325;28;20126;-79
2022/09/25 09:27:52;;;;;;;3.88;1.70;;;;;;;;;;5115524;27;20043;-80
2022/09/25 09:30:21;;;;;;;1.98;1.30;;;;;;;;;;5111804;28;20492;-80
2022/09/25 09:33:06;;;;;;;3.15;1.45;;;;;;;;;;5100282;27;20048;-80
2022/09/25 09:35:47;;;;;;;3.83;1.50;;;;;;;;;;5111566;28;20399;-80
2022/09/25 09:38:27;;;;;;;2.35;1.35;;;;;;;;;;5111886;28;20046;-80
2022/09/25 09:41:02;;;;;;;3.70;1.60;;;;;;;;;;5107383;27;20050;-80
2022/09/25 09:43:41;;;;;;;2.97;1.40;;;;;;;;;;5105470;27;20066;-81
2022/09/25 09:46:13;;;;;;;2.95;1.48;;;;;;;;;;5116626;27;20039;-80
2022/09/25 09:49:01;;;;;;;2.30;1.30;;;;;;;;;;5109203;28;20480;-80
2022/09/25 09:51:31;;;;;;;2.88;1.45;;;;;;;;;;5110764;27;20043;-80
2022/09/25 09:53:59;;;;;;;3.65;1.40;;;;;;;;;;5112218;28;20043;-82
2022/09/25 09:56:28;;;;;;;4.32;1.50;;;;;;;;;;5112903;27;20042;-81
2022/09/25 09:58:57;;;;;;;3.28;1.30;;;;;;;;;;5110810;27;20131;-81
2022/09/25 10:01:25;;;;;;;3.15;1.50;;;;;;;;;;5111172;27;20044;-81
2022/09/25 10:04:01;;;;;;;3.22;1.65;;;;;;;;;;5110893;28;20580;-81
2022/09/25 10:06:29;;;;;;;6.32;1.98;;;;;;;;;;5105350;28;20051;-82
2022/09/25 10:08:55;;;;;;;5.90;1.65;;;;;;;;;;5111007;28;20047;-85
2022/09/25 10:11:21;;;;;;;7.05;1.85;;;;;;;;;;5104846;27;20036;-83
2022/09/25 10:13:47;;;;;;;2.75;1.70;;;;;;;;;;5111693;28;20039;-81
2022/09/25 10:16:16;;;;;;;3.72;1.75;;;;;;;;;;5106640;28;20204;-81
2022/09/25 10:18:49;;;;;;;4.05;1.77;;;;;;;;;;5108011;27;20051;-82
2022/09/25 10:21:26;;;;;;;3.60;1.50;;;;;;;;;;5113571;27;20700;-81
2022/09/25 10:23:53;;;;;;;3.85;1.77;;;;;;;;;;5105235;28;20093;-81
2022/09/25 10:26:35;;;;;;;6.32;1.75;;;;;;;;;;5111739;28;20517;-81
2022/09/25 10:29:03;;;;;;;8.18;1.65;;;;;;;;;;5108776;27;20525;-82
2022/09/25 10:31:38;;;;;;;4.65;1.52;;;;;;;;;;5102811;28;20076;-81
2022/09/25 10:34:04;;;;;;;6.50;1.50;;;;;;;;;;5110800;28;20044;-82
2022/09/25 10:36:31;;;;;;;4.07;1.30;;;;;;;;;;5110185;27;20039;-83
2022/09/25 10:38:58;;;;;;;2.58;1.20;;;;;;;;;;5111350;27;20510;-81
2022/09/25 10:41:24;;;;;;;2.17;1.30;;;;;;;;;;5109496;27;20042;-82
2022/09/25 10:43:52;;;;;;;3.50;1.65;;;;;;;;;;5108265;27;20053;-83
2022/09/25 10:50:09;;;;;;;4.70;1.42;;;;;;;;;;5111432;27;20035;-85
2022/09/25 10:52:04;;;;;;;4.50;1.50;;;;;;;;;;5108409;27;20059;-86
2022/09/25 10:54:30;;;;;;;4.90;1.60;;;;;;;;;;5115828;27;20055;-88
2022/09/25 10:56:57;;;;;;;1.73;1.40;;;;;;;;;;5104210;28;20051;-85
2022/09/25 10:59:23;;;;;;;4.07;1.45;;;;;;;;;;5111582;27;20401;-86
2022/09/25 11:01:53;;;;;;;2.20;1.30;;;;;;;;;;5110567;27;20052;-86
2022/09/25 11:04:24;;;;;;;3.33;1.40;;;;;;;;;;5099298;27;20051;-84
2022/09/25 11:07:13;;;;;;;3.90;1.35;;;;;;;;;;5100820;28;20055;-87
2022/09/25 11:09:43;;;;;;;2.70;1.50;;;;;;;;;;5112304;27;20135;-82
2022/09/25 11:12:14;;;;;;;5.45;1.60;;;;;;;;;;5113923;27;20264;-84
2022/09/25 11:14:45;;;;;;;4.50;1.55;;;;;;;;;;5095005;28;20570;-82
2022/09/25 11:17:29;;;;;;;2.17;1.40;;;;;;;;;;5103554;28;20044;-85
2022/09/25 11:20:17;;;;;;;2.80;1.38;;;;;;;;;;5109025;28;20048;-88
2022/09/25 11:22:47;;;;;;;2.22;1.30;;;;;;;;;;5104050;27;20060;-80
2022/09/25 11:25:32;;;;;;;2.15;1.20;;;;;;;;;;5093908;28;20051;-82
2022/09/25 11:28:11;;;;;;;3.60;1.20;;;;;;;;;;5096682;28;20498;-85
2022/09/25 11:30:46;;;;;;;4.38;1.52;;;;;;;;;;5106939;28;20050;-85
2022/09/25 11:33:22;;;;;;;2.97;1.48;;;;;;;;;;5103056;28;20044;-89
2022/09/25 11:36:04;;;;;;;3.25;1.30;;;;;;;;;;5114099;28;20050;-91
2022/09/25 11:41:39;;;;;;;3.05;1.23;;;;;;;;;;5108232;28;20040;-87
2022/09/25 11:44:16;;;;;;;2.53;1.30;;;;;;;;;;5100228;28;20039;-85
2022/09/25 11:46:52;;;;;;;3.50;1.50;;;;;;;;;;5106180;28;20114;-85
2022/09/25 11:49:44;;;;;;;5.22;1.40;;;;;;;;;;5114308;28;20114;-83
2022/09/25 11:52:19;;;;;;;3.10;1.27;;;;;;;;;;5103180;27;20055;-78
2022/09/25 11:55:04;;;;;;;2.90;1.23;;;;;;;;;;5112866;27;20163;-82
2022/09/25 11:57:48;;;;;;;3.97;1.60;;;;;;;;;;5105530;27;20119;-83
2022/09/25 12:00:19;;;;;;;2.03;1.15;;;;;;;;;;5104464;28;20048;-82
2022/09/25 12:02:54;;;;;;;1.20;1.10;;;;;;;;;;5114004;28;20093;-81
2022/09/25 12:05:23;;;;;;;1.95;1.20;;;;;;;;;;5112964;27;20466;-83
2022/09/25 12:07:52;;;;;;;2.67;1.30;;;;;;;;;;5110891;27;20552;-85
2022/09/25 12:10:45;;;;;;;3.75;1.20;;;;;;;;;;5111913;28;20036;-84
2022/09/25 12:13:17;;;;;;;2.22;1.27;;;;;;;;;;5113413;28;20480;-82
2022/09/25 12:16:02;;;;;;;2.63;1.20;;;;;;;;;;5100800;27;20108;-82
2022/09/25 12:18:51;;;;;;;1.02;1.02;;;;;;;;;;5113594;28;20047;-82
2022/09/25 12:21:24;;;;;;;2.90;1.10;;;;;;;;;;5112848;27;20130;-84
2022/09/25 12:23:53;;;;;;;2.22;1.40;;;;;;;;;;5112797;28;20070;-83
2022/09/25 12:26:24;;;;;;;2.95;1.30;;;;;;;;;;5111681;28;20052;-83
2022/09/25 12:28:53;;;;;;;4.05;1.40;;;;;;;;;;5110831;28;20040;-83
2022/09/25 12:31:38;;;;;;;2.05;1.30;;;;;;;;;;5105135;27;20129;-83
2022/09/25 12:34:17;;;;;;;3.22;1.67;;;;;;;;;;5112825;28;20043;-84
2022/09/25 12:37:09;;;;;;;4.35;1.10;;;;;;;;;;5111044;27;20104;-83
2022/09/25 12:39:39;;;;;;;2.08;1.10;;;;;;;;;;5110847;28;20047;-81
2022/09/25 12:42:16;;;;;;;3.72;1.20;;;;;;;;;;5113698;28;20434;-84
2022/09/25 12:44:46;;;;;;;2.78;1.20;;;;;;;;;;5105735;27;20040;-83
2022/09/25 12:47:15;;;;;;;3.10;1.05;;;;;;;;;;5097653;28;20114;-83
2022/09/25 12:49:50;;;;;;;6.68;2.38;;;;;;;;;;5114057;27;20657;-79
2022/09/25 12:52:25;;;;;;;3.00;1.40;;;;;;;;;;5110197;27;20047;-79
2022/09/25 12:54:56;;;;;;;1.42;1.13;;;;;;;;;;5112376;27;20050;-81
2022/09/25 12:57:41;;;;;;;2.80;1.20;;;;;;;;;;5113084;27;20380;-84
2022/09/25 13:00:24;;;;;;;2.80;1.33;;;;;;;;;;5106156;28;20040;-84
2022/09/25 13:02:50;;;;;;;;;;;;;;;;;;5108693;27;20752;-83
2022/09/25 13:05:22;;;;;;;1.50;1.20;;;;;;;;;;5097390;28;19926;-84
2022/09/25 13:07:49;;;;;;;1.50;1.17;;;;;;;;;;5110933;28;20122;-84
2022/09/25 13:10:38;;;;;;;2.60;1.15;;;;;;;;;;5106681;28;20077;-82
2022/09/25 13:13:08;;;;;;;2.50;1.00;;;;;;;;;;5111203;27;20047;-81
2022/09/25 13:15:36;;;;;;;2.22;1.02;;;;;;;;;;5114213;28;20035;-81
2022/09/25 13:18:03;;;;;;;0.90;0.90;;;;;;;;;;5113233;28;20574;-82
2022/09/25 13:20:33;;;;;;;3.63;1.10;;;;;;;;;;5101128;27;20148;-82
2022/09/25 13:23:01;;;;;;;1.77;1.30;;;;;;;;;;5096896;27;20058;-82
2022/09/25 13:25:28;;;;;;;2.25;1.17;;;;;;;;;;5110760;28;20475;-78
2022/09/25 13:27:54;;;;;;;1.42;1.00;;;;;;;;;;5108748;27;20068;-78
2022/09/25 13:30:25;;;;;;;2.13;1.05;;;;;;;;;;5102466;27;20051;-79
2022/09/25 13:32:58;;;;;;;2.22;1.20;;;;;;;;;;5114618;27;20112;-82
2022/09/25 13:35:25;;;;;;;3.40;1.40;;;;;;;;;;5100101;27;20484;-83
2022/09/25 13:37:52;;;;;;;4.53;1.40;;;;;;;;;;5098721;27;20047;-81
2022/09/25 13:43:19;;;;;;;3.47;1.20;;;;;;;;;;5110994;28;20047;-83
2022/09/25 13:45:47;;;;;;;1.40;1.13;;;;;;;;;;5112579;27;20036;-85
2022/09/25 13:48:33;;;;;;;3.08;1.33;;;;;;;;;;5133513;27;20043;-82
2022/09/25 13:51:31;;;;;;;2.83;1.20;;;;;;;;;;5113397;28;20120;-85
2022/09/25 13:54:01;;;;;;;4.03;1.02;;;;;;;;;;5050400;28;20062;-92
2022/09/25 13:56:40;;;;;;;3.47;1.20;;;;;;;;;;5124253;27;20035;-88
2022/09/25 13:59:09;;;;;;;3.35;1.20;;;;;;;;;;5107036;27;20047;-88
2022/09/25 14:01:35;;;;;;;3.72;1.15;;;;;;;;;;5112004;27;20043;-82
2022/09/25 14:04:08;;;;;;;2.70;1.20;;;;;;;;;;5110727;28;20612;-85
2022/09/25 14:06:35;;;;;;;1.95;1.20;;;;;;;;;;5099587;27;20039;-82
2022/09/25 14:09:15;;;;;;;3.33;1.20;;;;;;;;;;5104145;28;20048;-85
2022/09/25 14:11:44;;;;;;;5.78;1.20;;;;;;;;;;5107007;27;20065;-87
2022/09/25 14:14:15;;;;;;;2.80;1.30;;;;;;;;;;5105358;27;20078;-83
2022/09/25 14:16:52;;;;;;;2.05;1.02;;;;;;;;;;5109364;27;20050;-84
2022/09/25 14:19:20;;;;;;;3.85;1.42;;;;;;;;;;5102728;28;20507;-83
2022/09/25 14:21:47;;;;;;;4.95;1.50;;;;;;;;;;5110106;27;20426;-84
2022/09/25 14:24:22;;;;;;;2.20;1.50;;;;;;;;;;5098315;28;20047;-82
2022/09/25 14:26:50;;;;;;;1.80;1.40;;;;;;;;;;5103294;28;20056;-82
2022/09/25 14:29:37;;;;;;;5.60;1.50;;;;;;;;;;5106403;27;20050;-85
2022/09/25 14:32:13;;;;;;;2.75;1.30;;;;;;;;;;5116751;27;20514;-84
2022/09/25 14:34:48;;;;;;;1.63;1.30;;;;;;;;;;5108010;28;20505;-83
2022/09/25 14:37:17;;;;;;;1.58;1.20;;;;;;;;;;5107648;28;20123;-84
2022/09/25 14:40:02;;;;;;;2.95;1.25;;;;;;;;;;5109645;27;20089;-82
2022/09/25 14:42:32;;;;;;;9.13;1.58;;;;;;;;;;5097233;27;20044;-89
2022/09/25 14:44:58;;;;;;;3.15;1.13;;;;;;;;;;5098673;28;20507;-85
2022/09/25 14:47:29;;;;;;;1.67;1.15;;;;;;;;;;5116777;27;20077;-91
2022/09/25 14:49:55;;;;;;;1.88;0.95;;;;;;;;;;5113074;28;20051;-92
2022/09/25 14:52:25;;;;;;;0.93;0.90;;;;;;;;;;5110842;28;20035;-83
2022/09/25 14:54:54;;;;;;;0.70;0.70;;;;;;;;;;5106192;28;20104;-84
2022/09/25 14:57:24;;;;;;;0.77;0.75;;;;;;;;;;5115901;27;20429;-88
2022/09/25 14:59:51;;;;;;;1.00;1.00;;;;;;;;;;5105697;28;20056;-85
2022/09/25 15:02:22;;;;;;;1.73;1.20;;;;;;;;;;5103002;27;20061;-86
2022/09/25 15:04:48;;;;;;;1.25;0.98;;;;;;;;;;5113237;27;20160;-84
2022/09/25 15:10:47;;;;;;;1.67;1.02;;;;;;;;;;5055901;22;20079;-84
2022/09/25 15:13:17;;;;;;;0.95;0.90;;;;;;;;;;5046272;28;20044;-82
2022/09/25 15:17:20;;;;;;;1.02;0.85;;;;;;;;;;5050702;28;20048;-82
2022/09/25 15:18:31;;;;;;;0.85;0.85;;;;;;;;;;5053090;28;20048;-82
2022/09/25 15:20:57;;;;;;;1.17;0.98;;;;;;;;;;5041170;28;20049;-82
2022/09/25 15:23:24;;;;;;;1.42;1.05;;;;;;;;;;5052481;28;20037;-81
2022/09/25 15:25:53;;;;;;;2.35;1.10;;;;;;;;;;5052861;28;20083;-80
2022/09/25 15:28:21;;;;;;;0.90;0.90;;;;;;;;;;5052019;28;20053;-79
2022/09/25 15:30:54;;;;;;;2.60;1.10;;;;;;;;;;5054535;28;20055;-81